Austin, Missouri
Current Conditions -  °F | °C
As of 3:53 AM on Friday 31 Oct 2014 (Local Time) from KOJC Reporting Station
Overcast Overcast  
Wind Chill: 41°   Ceiling: 2300
Heat Index: 49°   Visibility: 10mi
Dew Point: 39°   Wind: 24mph
Humidity: 69%   Direction: 360°N
Pressure: 30.27"   Gusts: 31mph
Location:  38.5148°N, 94.3768°W
Report Text: KOJC 310853Z AUTO 36021G27KT 10SM OVC023 09/04 A3027 RMK AO2 PK WND 36027/0853 SLP247 T00940039 53018
Loading
Personal Weather Stations






























Interactive Weather Map
Tropical Storm Tracking
New forecast layout! Learn more

10-Day Weather Forecast

Advertisements
Track Severe Weather on mobile